Portage Co  -  Hydrologic Outlook Hydrologic Outlook        Wood Co  -  Hydrologic Outlook Hydrologic Outlook        Marathon Co  -  Hydrologic Outlook Hydrologic Outlook        Waupaca Co  -  River Flood Warning River Flood Warning     Hydrologic Outlook Hydrologic Outlook      


Plover Skycam (click)  Plover Skycam (click)


Rain radar more information rain snow radar



Nearby METAR Reports

   
KISW - Wisconsin Rapids, WI
Updated: Apr 22 2018 4:54 am
Clear  
Clear  
   Wind: Calm
Wind: Calm
Temperature: 28.4°F
Dew Point: 23°F
Humidity: 80%
Barometer: 30.36 inHg
Clouds: Clear
Visibility: 10 mi
Cloud details: Clear
KISW 220954Z AUTO 00000KT 10SM CLR M02/M05 A3036 RMK AO2 SLP290 T10171050 TSNO
KSTE - Stevens Point, WI
Updated: Apr 22 2018 4:55 am
Clear  
Clear  
   Wind: Calm
Wind: Calm
Temperature: 24.8°F
Dew Point: 24.8°F
Humidity: 100%
Barometer: 30.37 inHg
Clouds: Clear
Visibility: 10 mi
Cloud details: Clear
KSTE 220955Z AUTO 00000KT 10SM CLR M04/M04 A3037 RMK AO2 T10371043
KCWA - CWA Mosinee, WI
Updated: Apr 22 2018 4:55 am
Clear  
Clear  
   Wind: Calm
Wind: Calm
Temperature: 32°F
Dew Point: 26.6°F
Humidity: 80%
Barometer: 30.36 inHg
Clouds: Clear
Visibility: 10 mi
Cloud details: Clear
KCWA 220955Z AUTO 00000KT 10SM CLR 00/M03 A3036 RMK AO2
KMFI - Marshfield, WI
Updated: Apr 22 2018 4:54 am
Clear  
Clear  
   Wind: Calm
Wind: Calm
Temperature: 33.8°F
Dew Point: 26.6°F
Humidity: 75%
Barometer: 30.33 inHg
Clouds: Clear
Visibility: 10 mi
Cloud details: Clear
KMFI 220954Z AUTO 00000KT 10SM CLR 01/M03 A3033 RMK AO2 SLP280 T00061028 TSNO
KISW - Friendship, WI
Updated: Apr 22 2018 4:54 am
Clear  
Clear  
   Wind: Calm
Wind: Calm
Temperature: 28.4°F
Dew Point: 23°F
Humidity: 80%
Barometer: 30.36 inHg
Clouds: Clear
Visibility: 10 mi
Cloud details: Clear
KISW 220954Z AUTO 00000KT 10SM CLR M02/M05 A3036 RMK AO2 SLP290 T10171050 TSNO
KSTE - Waupaca, WI
Updated: Apr 22 2018 4:55 am
Clear  
Clear  
   Wind: Calm
Wind: Calm
Temperature: 24.8°F
Dew Point: 24.8°F
Humidity: 100%
Barometer: 30.37 inHg
Clouds: Clear
Visibility: 10 mi
Cloud details: Clear
KSTE 220955Z AUTO 00000KT 10SM CLR M04/M04 A3037 RMK AO2 T10371043
KSTE - Custer, WI
Updated: Apr 22 2018 4:55 am
Clear  
Clear  
   Wind: Calm
Wind: Calm
Temperature: 24.8°F
Dew Point: 24.8°F
Humidity: 100%
Barometer: 30.37 inHg
Clouds: Clear
Visibility: 10 mi
Cloud details: Clear
KSTE 220955Z AUTO 00000KT 10SM CLR M04/M04 A3037 RMK AO2 T10371043
KMSP - Eau Claire, WI
Updated: Apr 22 2018 4:53 am
Clear  
Clear  
   Wind: Calm
Wind: Calm
Temperature: 37.4°F
Dew Point: 32°F
Humidity: 81%
Barometer: 30.33 inHg
Clouds: Clear
Visibility: 10 mi
Cloud details: Clear
KMSP 220953Z 00000KT 10SM CLR 03/00 A3033 RMK AO2 SLP274 T00330000
 

Script developed by  Saratoga-weather.org Adapted for the template by  Weerstation Leuven